Time;durP1;ratioP1;P1;durP2;ratioP2;P2;SDS_P1;SDS_P2;PMS_P1;PMS_P2;Temp;Humidity;BMP_temperature;BMP_pressure;BME280_temperature;BME280_humidity;BME280_pressure;Samples;Min_cycle;Max_cycle;Signal;HPM_P1;HPM_P2
2021/04/03 00:00:09;;;;;;;13.63;2.30;;;;;;;;;;4330704;33;20190;-65
2021/04/03 00:02:34;;;;;;;9.17;1.80;;;;;;;;;;4330523;33;20139;-65
2021/04/03 00:04:59;;;;;;;14.10;2.17;;;;;;;;;;4331960;33;20192;-66
2021/04/03 00:07:24;;;;;;;10.63;2.40;;;;;;;;;;4330614;33;20542;-66
2021/04/03 00:09:49;;;;;;;7.80;1.40;;;;;;;;;;4330394;33;20150;-66
2021/04/03 00:12:15;;;;;;;13.90;2.00;;;;;;;;;;4332009;33;20225;-65
2021/04/03 00:14:40;;;;;;;11.27;1.97;;;;;;;;;;4331704;33;20665;-67
2021/04/03 00:17:05;;;;;;;11.80;1.97;;;;;;;;;;4330366;33;20223;-65
2021/04/03 00:19:30;;;;;;;15.37;2.10;;;;;;;;;;4331712;33;20465;-65
2021/04/03 00:21:55;;;;;;;17.53;2.27;;;;;;;;;;4328768;33;20231;-67
2021/04/03 00:24:21;;;;;;;9.77;1.93;;;;;;;;;;4331911;33;20521;-65
2021/04/03 00:26:46;;;;;;;8.73;2.00;;;;;;;;;;4330839;33;20131;-66
2021/04/03 00:29:11;;;;;;;14.63;2.17;;;;;;;;;;4332053;33;20155;-65
2021/04/03 00:31:36;;;;;;;14.70;3.07;;;;;;;;;;4334302;33;20240;-65
2021/04/03 00:34:01;;;;;;;9.33;1.73;;;;;;;;;;4334282;33;20529;-66
2021/04/03 00:36:27;;;;;;;12.93;2.67;;;;;;;;;;4335101;33;20293;-65
2021/04/03 00:38:52;;;;;;;16.10;2.60;;;;;;;;;;4333672;33;20190;-65
2021/04/03 00:41:17;;;;;;;11.20;2.23;;;;;;;;;;4332841;33;20133;-66
2021/04/03 00:43:42;;;;;;;13.37;2.40;;;;;;;;;;4334788;33;20157;-64
2021/04/03 00:46:08;;;;;;;11.63;2.20;;;;;;;;;;4333652;33;20132;-67
2021/04/03 00:48:33;;;;;;;15.10;2.17;;;;;;;;;;4334137;33;20178;-66
2021/04/03 00:50:58;;;;;;;16.60;2.57;;;;;;;;;;4333866;33;20124;-66
2021/04/03 00:53:24;;;;;;;14.30;2.30;;;;;;;;;;4344623;33;20190;-64
2021/04/03 00:55:50;;;;;;;16.73;2.10;;;;;;;;;;4332808;33;20198;-68
2021/04/03 00:58:16;;;;;;;17.17;2.60;;;;;;;;;;4334702;33;20537;-65
2021/04/03 01:00:41;;;;;;;12.73;2.00;;;;;;;;;;4334634;33;20136;-65
2021/04/03 01:03:06;;;;;;;14.70;2.70;;;;;;;;;;4334327;33;20135;-66
2021/04/03 01:05:32;;;;;;;11.20;2.50;;;;;;;;;;4334673;33;20163;-65
2021/04/03 01:07:57;;;;;;;12.10;2.70;;;;;;;;;;4332905;33;20128;-66
2021/04/03 01:10:27;;;;;;;11.30;2.30;;;;;;;;;;4333462;33;20128;-65
2021/04/03 01:12:55;;;;;;;13.43;2.27;;;;;;;;;;4332398;33;20132;-67
2021/04/03 01:15:23;;;;;;;12.77;2.30;;;;;;;;;;4333082;33;20190;-65
2021/04/03 01:18:00;;;;;;;9.90;2.63;;;;;;;;;;4334193;33;20132;-65
2021/04/03 01:20:31;;;;;;;21.23;2.63;;;;;;;;;;4332777;33;20161;-67
2021/04/03 01:23:16;;;;;;;16.47;2.30;;;;;;;;;;4334612;33;20530;-66
2021/04/03 01:25:51;;;;;;;20.33;2.73;;;;;;;;;;4318753;33;20149;-66
2021/04/03 01:28:43;;;;;;;16.43;2.57;;;;;;;;;;4330178;33;20589;-67
2021/04/03 01:31:08;;;;;;;16.27;2.50;;;;;;;;;;4319093;33;20435;-67
2021/04/03 01:33:34;;;;;;;14.37;2.50;;;;;;;;;;4319503;33;20136;-66
2021/04/03 01:36:11;;;;;;;18.53;2.30;;;;;;;;;;4318289;33;20635;-68
2021/04/03 01:38:44;;;;;;;18.70;2.70;;;;;;;;;;4316763;33;20155;-66
2021/04/03 01:41:09;;;;;;;19.03;2.53;;;;;;;;;;4318308;33;20426;-67
2021/04/03 01:43:39;;;;;;;14.63;2.53;;;;;;;;;;4328891;33;20255;-66
2021/04/03 01:46:05;;;;;;;22.97;2.80;;;;;;;;;;4319208;33;20134;-65
2021/04/03 01:48:30;;;;;;;11.73;2.17;;;;;;;;;;4317344;33;20223;-67
2021/04/03 01:50:56;;;;;;;14.50;2.37;;;;;;;;;;4318181;33;20156;-65
2021/04/03 01:53:21;;;;;;;17.90;3.13;;;;;;;;;;4319296;33;20175;-66
2021/04/03 01:55:47;;;;;;;10.87;2.37;;;;;;;;;;4319459;33;20129;-64
2021/04/03 01:58:13;;;;;;;16.17;2.07;;;;;;;;;;4317370;33;20179;-66
2021/04/03 02:00:39;;;;;;;17.90;2.73;;;;;;;;;;4319351;33;20467;-65
2021/04/03 02:03:04;;;;;;;21.23;2.73;;;;;;;;;;4318584;33;20140;-65
2021/04/03 02:05:30;;;;;;;14.50;2.63;;;;;;;;;;4318465;33;20160;-66
2021/04/03 02:07:56;;;;;;;17.47;2.27;;;;;;;;;;4320586;33;20495;-66
2021/04/03 02:10:23;;;;;;;17.70;2.40;;;;;;;;;;4332238;33;20465;-66
2021/04/03 02:12:48;;;;;;;12.97;2.13;;;;;;;;;;4332598;33;20148;-66
2021/04/03 02:15:14;;;;;;;11.30;1.97;;;;;;;;;;4333827;33;20423;-66
2021/04/03 02:17:42;;;;;;;15.27;2.53;;;;;;;;;;4332352;33;20159;-67
2021/04/03 02:20:09;;;;;;;20.63;3.10;;;;;;;;;;4332825;33;20128;-65
2021/04/03 02:22:34;;;;;;;14.33;2.83;;;;;;;;;;4333411;33;20151;-64
2021/04/03 02:24:59;;;;;;;13.57;2.40;;;;;;;;;;4333155;33;20513;-66
2021/04/03 02:27:27;;;;;;;14.93;2.30;;;;;;;;;;4331877;33;20171;-65
2021/04/03 02:29:53;;;;;;;15.37;2.63;;;;;;;;;;4331427;33;20160;-65
2021/04/03 02:32:18;;;;;;;13.13;2.40;;;;;;;;;;4333203;33;20614;-66
2021/04/03 02:34:43;;;;;;;15.87;2.43;;;;;;;;;;4331783;33;20175;-66
2021/04/03 02:37:08;;;;;;;18.43;3.00;;;;;;;;;;4332296;33;20128;-66
2021/04/03 02:39:33;;;;;;;18.83;3.20;;;;;;;;;;4333285;33;20229;-64
2021/04/03 02:42:02;;;;;;;14.30;2.43;;;;;;;;;;4332369;33;20164;-66
2021/04/03 02:44:37;;;;;;;10.60;2.13;;;;;;;;;;4331761;33;20139;-65
2021/04/03 02:47:11;;;;;;;18.37;3.00;;;;;;;;;;4331407;33;20147;-66
2021/04/03 02:49:43;;;;;;;12.93;2.50;;;;;;;;;;4332665;33;20436;-67
2021/04/03 02:52:11;;;;;;;18.17;2.40;;;;;;;;;;4331787;33;20132;-64
2021/04/03 02:54:37;;;;;;;16.50;2.67;;;;;;;;;;4331071;33;20591;-66
2021/04/03 02:57:03;;;;;;;16.90;2.93;;;;;;;;;;4331401;33;20214;-64
2021/04/03 02:59:31;;;;;;;23.70;2.67;;;;;;;;;;4331161;33;20159;-65
2021/04/03 03:01:57;;;;;;;14.47;2.47;;;;;;;;;;4332977;33;20162;-65
2021/04/03 03:04:23;;;;;;;18.03;2.90;;;;;;;;;;4331323;33;20186;-65
2021/04/03 03:06:49;;;;;;;18.60;2.90;;;;;;;;;;4332107;33;20124;-66
2021/04/03 03:09:14;;;;;;;16.13;2.93;;;;;;;;;;4331033;33;20178;-66
2021/04/03 03:11:43;;;;;;;14.97;3.00;;;;;;;;;;4331034;33;20197;-65
2021/04/03 03:14:09;;;;;;;15.53;2.60;;;;;;;;;;4332799;33;20195;-66
2021/04/03 03:16:35;;;;;;;18.30;3.27;;;;;;;;;;4332700;33;20132;-64
2021/04/03 03:19:01;;;;;;;16.40;3.00;;;;;;;;;;4332803;33;20259;-65
2021/04/03 03:21:27;;;;;;;18.70;2.87;;;;;;;;;;4327540;33;20204;-65
2021/04/03 03:23:52;;;;;;;19.60;3.37;;;;;;;;;;4316270;33;20125;-65
2021/04/03 03:26:18;;;;;;;20.60;2.80;;;;;;;;;;4317667;33;20194;-65
2021/04/03 03:28:44;;;;;;;16.77;3.00;;;;;;;;;;4316197;33;20481;-64
2021/04/03 03:31:09;;;;;;;19.73;3.17;;;;;;;;;;4316231;33;20160;-66
2021/04/03 03:33:35;;;;;;;13.53;3.00;;;;;;;;;;4316798;33;20173;-65
2021/04/03 03:36:00;;;;;;;8.77;2.23;;;;;;;;;;4303755;33;20218;-65
2021/04/03 03:38:25;;;;;;;17.27;2.77;;;;;;;;;;4331122;33;20501;-65
2021/04/03 03:40:54;;;;;;;14.90;2.47;;;;;;;;;;4330481;33;20214;-65
2021/04/03 03:43:19;;;;;;;16.37;2.83;;;;;;;;;;4329540;33;20164;-66
2021/04/03 03:45:44;;;;;;;14.40;2.70;;;;;;;;;;4331322;33;20124;-66
2021/04/03 03:48:10;;;;;;;18.80;2.60;;;;;;;;;;4330635;33;20282;-66
2021/04/03 03:50:35;;;;;;;17.33;3.27;;;;;;;;;;4330127;33;20479;-64
2021/04/03 03:53:00;;;;;;;23.63;3.17;;;;;;;;;;4331124;33;20127;-65
2021/04/03 03:55:25;;;;;;;14.70;3.07;;;;;;;;;;4331033;33;20160;-64
2021/04/03 03:57:50;;;;;;;19.90;2.97;;;;;;;;;;4330433;33;20124;-66
2021/04/03 04:00:16;;;;;;;22.00;2.73;;;;;;;;;;4331910;33;20155;-65
2021/04/03 04:02:41;;;;;;;15.13;2.47;;;;;;;;;;4330522;33;20649;-65
2021/04/03 04:05:06;;;;;;;20.27;3.30;;;;;;;;;;4331445;33;20133;-65
2021/04/03 04:07:34;;;;;;;15.40;3.37;;;;;;;;;;4331795;33;20128;-66
2021/04/03 04:09:59;;;;;;;20.47;2.93;;;;;;;;;;4330596;33;20164;-66
2021/04/03 04:12:28;;;;;;;24.50;3.30;;;;;;;;;;4331962;33;20178;-65
2021/04/03 04:14:53;;;;;;;18.87;2.90;;;;;;;;;;4330440;33;20170;-65
2021/04/03 04:17:19;;;;;;;17.07;3.30;;;;;;;;;;4330146;33;20160;-64
2021/04/03 04:19:44;;;;;;;16.50;2.80;;;;;;;;;;4330494;33;20248;-65
2021/04/03 04:22:09;;;;;;;16.13;2.80;;;;;;;;;;4330761;33;20217;-65
2021/04/03 04:24:34;;;;;;;17.90;3.13;;;;;;;;;;4330407;33;20182;-65
2021/04/03 04:26:59;;;;;;;23.60;3.43;;;;;;;;;;4330980;33;20249;-64
2021/04/03 04:29:24;;;;;;;21.83;5.53;;;;;;;;;;4330280;33;20507;-66
2021/04/03 04:31:49;;;;;;;17.17;3.20;;;;;;;;;;4332010;33;20577;-65
2021/04/03 04:34:15;;;;;;;21.20;3.27;;;;;;;;;;4330187;33;20228;-65
2021/04/03 04:36:40;;;;;;;29.20;3.20;;;;;;;;;;4328640;33;20160;-66
2021/04/03 04:39:05;;;;;;;22.20;3.23;;;;;;;;;;4329977;33;20558;-65
2021/04/03 04:41:30;;;;;;;22.63;3.70;;;;;;;;;;4331690;33;20132;-64
2021/04/03 04:43:55;;;;;;;25.63;3.43;;;;;;;;;;4330450;33;20132;-64
2021/04/03 04:46:20;;;;;;;17.70;3.22;;;;;;;;;;4330203;33;20549;-67
2021/04/03 04:48:46;;;;;;;15.53;3.57;;;;;;;;;;4330708;33;20175;-66
2021/04/03 04:51:11;;;;;;;19.93;2.83;;;;;;;;;;4329665;33;20166;-64
2021/04/03 04:53:36;;;;;;;18.90;3.00;;;;;;;;;;4331503;33;20167;-65
2021/04/03 04:56:01;;;;;;;20.33;3.63;;;;;;;;;;4331007;33;20174;-64
2021/04/03 04:58:27;;;;;;;18.43;3.37;;;;;;;;;;4330193;33;20158;-64
2021/04/03 05:00:52;;;;;;;18.27;3.30;;;;;;;;;;4330101;33;20158;-65
2021/04/03 05:03:17;;;;;;;17.30;3.10;;;;;;;;;;4331829;33;20132;-66
2021/04/03 05:05:42;;;;;;;28.05;3.75;;;;;;;;;;4330950;33;20140;-66
2021/04/03 05:08:07;;;;;;;23.37;2.70;;;;;;;;;;4331419;33;20132;-64
2021/04/03 05:10:32;;;;;;;22.30;3.93;;;;;;;;;;4330065;33;20129;-65
2021/04/03 05:13:02;;;;;;;26.00;4.23;;;;;;;;;;4329940;33;20230;-64
2021/04/03 05:15:27;;;;;;;23.77;3.30;;;;;;;;;;4331261;33;20136;-65
2021/04/03 05:17:52;;;;;;;29.60;3.97;;;;;;;;;;4334037;33;20236;-65
2021/04/03 05:20:17;;;;;;;24.07;3.80;;;;;;;;;;4332580;33;20140;-66
2021/04/03 05:22:42;;;;;;;27.00;4.70;;;;;;;;;;4332765;33;20549;-65
2021/04/03 05:25:08;;;;;;;23.87;3.77;;;;;;;;;;4325080;33;20144;-64
2021/04/03 05:27:33;;;;;;;22.60;3.27;;;;;;;;;;4317749;33;20320;-65
2021/04/03 05:29:58;;;;;;;26.57;3.87;;;;;;;;;;4317849;33;20211;-64
2021/04/03 05:32:23;;;;;;;18.23;3.30;;;;;;;;;;4319593;33;20279;-65
2021/04/03 05:34:48;;;;;;;25.67;4.00;;;;;;;;;;4317882;33;20626;-65
2021/04/03 05:37:14;;;;;;;28.83;4.07;;;;;;;;;;4318328;33;20128;-64
2021/04/03 05:39:39;;;;;;;22.43;4.13;;;;;;;;;;4317764;33;20159;-65
2021/04/03 05:42:04;;;;;;;19.87;3.97;;;;;;;;;;4321089;33;20124;-66
2021/04/03 05:44:30;;;;;;;28.70;3.60;;;;;;;;;;4332321;33;20268;-66
2021/04/03 05:46:55;;;;;;;25.40;3.83;;;;;;;;;;4332816;33;20234;-66
2021/04/03 05:49:21;;;;;;;24.63;3.57;;;;;;;;;;4332406;33;20192;-68
2021/04/03 05:51:48;;;;;;;25.70;4.33;;;;;;;;;;4332395;33;20144;-66
2021/04/03 05:54:13;;;;;;;28.27;4.27;;;;;;;;;;4332175;33;20565;-67
2021/04/03 05:56:38;;;;;;;19.53;3.67;;;;;;;;;;4332045;33;20188;-69
2021/04/03 05:59:03;;;;;;;24.63;3.83;;;;;;;;;;4330740;33;20209;-64
2021/04/03 06:01:29;;;;;;;24.97;4.27;;;;;;;;;;4332939;33;20557;-63
2021/04/03 06:03:54;;;;;;;26.30;3.83;;;;;;;;;;4330761;33;20488;-63
2021/04/03 06:06:20;;;;;;;25.50;3.73;;;;;;;;;;4333390;33;20242;-64
2021/04/03 06:08:45;;;;;;;16.63;3.70;;;;;;;;;;4332544;33;20227;-63
2021/04/03 06:11:11;;;;;;;28.73;4.47;;;;;;;;;;4333173;33;20534;-67
2021/04/03 06:13:37;;;;;;;28.03;4.70;;;;;;;;;;4330060;33;20168;-65
2021/04/03 06:16:22;;;;;;;23.73;4.33;;;;;;;;;;4332170;33;20597;-65
2021/04/03 06:18:47;;;;;;;25.70;4.00;;;;;;;;;;4333163;33;20156;-65
2021/04/03 06:21:12;;;;;;;24.77;3.22;;;;;;;;;;4331622;33;20223;-64
2021/04/03 06:23:37;;;;;;;28.53;3.80;;;;;;;;;;4332931;33;20572;-65
2021/04/03 06:26:03;;;;;;;21.87;4.05;;;;;;;;;;4325562;33;20178;-67
2021/04/03 06:28:32;;;;;;;33.90;4.23;;;;;;;;;;4316617;33;20479;-67
2021/04/03 06:30:58;;;;;;;18.73;3.13;;;;;;;;;;4318773;33;20132;-66
2021/04/03 06:33:23;;;;;;;28.47;5.07;;;;;;;;;;4317738;33;20196;-67
2021/04/03 06:36:11;;;;;;;23.00;3.53;;;;;;;;;;4317193;33;20175;-66
2021/04/03 06:38:37;;;;;;;33.23;4.40;;;;;;;;;;4316890;33;20124;-63
2021/04/03 06:41:22;;;;;;;22.90;3.60;;;;;;;;;;4318679;33;20129;-67
2021/04/03 06:44:07;;;;;;;26.93;5.13;;;;;;;;;;4318089;33;20132;-66
2021/04/03 06:46:33;;;;;;;27.83;4.40;;;;;;;;;;4316570;33;20420;-63
2021/04/03 06:48:59;;;;;;;21.97;4.17;;;;;;;;;;4317329;33;20538;-64
2021/04/03 06:51:25;;;;;;;26.23;4.17;;;;;;;;;;4316820;33;20233;-66
2021/04/03 06:53:51;;;;;;;22.73;3.93;;;;;;;;;;4317807;33;20566;-65
2021/04/03 06:56:19;;;;;;;30.37;4.67;;;;;;;;;;4316570;33;20147;-66
2021/04/03 06:58:46;;;;;;;21.03;4.03;;;;;;;;;;4316548;33;20549;-64
2021/04/03 07:01:12;;;;;;;26.33;4.07;;;;;;;;;;4317839;33;20178;-63
2021/04/03 07:03:39;;;;;;;30.03;4.43;;;;;;;;;;4317826;33;20140;-63
2021/04/03 07:06:05;;;;;;;20.30;4.13;;;;;;;;;;4317333;33;20538;-65
2021/04/03 07:08:31;;;;;;;26.87;3.70;;;;;;;;;;4318206;33;20183;-63
2021/04/03 07:10:57;;;;;;;19.27;3.73;;;;;;;;;;4317023;33;20545;-67
2021/04/03 07:13:22;;;;;;;25.90;3.90;;;;;;;;;;4317592;33;20152;-64
2021/04/03 07:15:51;;;;;;;23.17;3.50;;;;;;;;;;4316242;33;20236;-67
2021/04/03 07:18:17;;;;;;;22.57;4.37;;;;;;;;;;4316046;33;20160;-64
2021/04/03 07:20:43;;;;;;;18.57;3.80;;;;;;;;;;4324696;33;20163;-65
2021/04/03 07:23:09;;;;;;;15.40;3.17;;;;;;;;;;4330953;33;20214;-65
2021/04/03 07:25:36;;;;;;;27.67;4.13;;;;;;;;;;4330138;33;20485;-64
2021/04/03 07:28:01;;;;;;;20.37;3.93;;;;;;;;;;4331617;33;20145;-64
2021/04/03 07:30:32;;;;;;;17.80;3.83;;;;;;;;;;4330725;33;20190;-66
2021/04/03 07:33:05;;;;;;;24.73;4.20;;;;;;;;;;4330561;33;20195;-63
2021/04/03 07:35:35;;;;;;;20.37;4.10;;;;;;;;;;4330154;33;20290;-65
2021/04/03 07:38:05;;;;;;;23.70;3.67;;;;;;;;;;4329517;33;20191;-66
2021/04/03 07:40:34;;;;;;;23.40;4.03;;;;;;;;;;4330820;33;20148;-66
2021/04/03 07:42:59;;;;;;;26.30;4.00;;;;;;;;;;4329776;33;20140;-65
2021/04/03 07:45:32;;;;;;;25.83;3.60;;;;;;;;;;4330209;33;20152;-64
2021/04/03 07:47:57;;;;;;;19.93;3.87;;;;;;;;;;4327914;33;20688;-66
2021/04/03 07:50:42;;;;;;;24.63;4.07;;;;;;;;;;4330192;33;20176;-63
2021/04/03 07:53:09;;;;;;;20.07;3.87;;;;;;;;;;4331622;33;20513;-64
2021/04/03 07:55:36;;;;;;;17.90;3.93;;;;;;;;;;4329538;33;20553;-66
2021/04/03 07:58:20;;;;;;;27.13;4.73;;;;;;;;;;4330214;33;20529;-64
2021/04/03 08:00:46;;;;;;;22.57;4.10;;;;;;;;;;4330890;33;20159;-65
2021/04/03 08:03:11;;;;;;;20.83;4.20;;;;;;;;;;4331655;33;20450;-64
2021/04/03 08:05:36;;;;;;;25.57;4.67;;;;;;;;;;4330403;33;20176;-65
2021/04/03 08:08:02;;;;;;;26.13;3.80;;;;;;;;;;4330824;33;20147;-63
2021/04/03 08:10:27;;;;;;;24.60;3.67;;;;;;;;;;4322803;33;20197;-64
2021/04/03 08:12:53;;;;;;;16.87;3.60;;;;;;;;;;4329264;33;20191;-65
2021/04/03 08:15:20;;;;;;;17.93;3.77;;;;;;;;;;4329427;33;20611;-67
2021/04/03 08:17:50;;;;;;;22.33;3.53;;;;;;;;;;4331541;33;20147;-65
2021/04/03 08:20:16;;;;;;;20.70;3.40;;;;;;;;;;4330059;33;20223;-67
2021/04/03 08:22:56;;;;;;;18.33;3.90;;;;;;;;;;4330295;33;20132;-64
2021/04/03 08:25:22;;;;;;;21.83;3.63;;;;;;;;;;4330340;33;20135;-67
2021/04/03 08:27:47;;;;;;;20.53;3.27;;;;;;;;;;4322469;33;20203;-64
2021/04/03 08:30:21;;;;;;;22.33;3.67;;;;;;;;;;4322790;33;20176;-65
2021/04/03 08:33:05;;;;;;;19.87;3.83;;;;;;;;;;4329361;33;20303;-65
2021/04/03 08:35:31;;;;;;;18.17;3.50;;;;;;;;;;4330453;33;20227;-65
2021/04/03 08:38:08;;;;;;;21.90;3.83;;;;;;;;;;4330015;33;20147;-64
2021/04/03 08:40:33;;;;;;;19.63;3.97;;;;;;;;;;4328230;33;20238;-66
2021/04/03 08:42:59;;;;;;;17.97;3.60;;;;;;;;;;4330060;33;20136;-66
2021/04/03 08:45:24;;;;;;;18.52;3.67;;;;;;;;;;4329817;33;20136;-64
2021/04/03 08:47:49;;;;;;;21.03;3.63;;;;;;;;;;4328115;33;20245;-64
2021/04/03 08:50:15;;;;;;;21.07;3.60;;;;;;;;;;4330557;33;20159;-67
2021/04/03 08:52:40;;;;;;;16.00;2.97;;;;;;;;;;4331741;33;20209;-63
2021/04/03 08:55:06;;;;;;;17.70;3.40;;;;;;;;;;4333697;33;20140;-64
2021/04/03 08:57:31;;;;;;;15.87;3.93;;;;;;;;;;4332733;33;20441;-66
2021/04/03 08:59:58;;;;;;;16.67;3.40;;;;;;;;;;4333346;33;20167;-68
2021/04/03 09:02:23;;;;;;;25.17;3.83;;;;;;;;;;4332825;33;20163;-67
2021/04/03 09:04:48;;;;;;;16.70;3.17;;;;;;;;;;4333560;33;20144;-63
2021/04/03 09:07:29;;;;;;;25.52;3.55;;;;;;;;;;4333024;33;20132;-66
2021/04/03 09:10:21;;;;;;;16.27;3.15;;;;;;;;;;4332975;33;20175;-64
2021/04/03 09:12:47;;;;;;;16.67;3.42;;;;;;;;;;4327401;33;20175;-66
2021/04/03 09:15:14;;;;;;;23.65;3.92;;;;;;;;;;4331748;33;20163;-67
2021/04/03 09:17:50;;;;;;;21.37;3.55;;;;;;;;;;4331014;33;20156;-67
2021/04/03 09:20:19;;;;;;;18.17;3.55;;;;;;;;;;4332234;33;20476;-66
2021/04/03 09:22:45;;;;;;;20.45;3.55;;;;;;;;;;4332344;33;20144;-65
2021/04/03 09:25:11;;;;;;;18.75;3.78;;;;;;;;;;4330824;33;20199;-66
2021/04/03 09:27:37;;;;;;;19.87;3.35;;;;;;;;;;4333388;33;20178;-64
2021/04/03 09:30:06;;;;;;;17.23;3.20;;;;;;;;;;4332321;33;20148;-65
2021/04/03 09:32:38;;;;;;;18.85;3.47;;;;;;;;;;4332086;33;20144;-65
2021/04/03 09:35:04;;;;;;;20.45;3.80;;;;;;;;;;4318584;33;20156;-65
2021/04/03 09:37:29;;;;;;;20.10;4.00;;;;;;;;;;4319749;33;20152;-65
2021/04/03 09:39:55;;;;;;;20.58;3.40;;;;;;;;;;4333482;33;20144;-64
2021/04/03 09:42:21;;;;;;;16.12;3.10;;;;;;;;;;4332353;33;20171;-66
2021/04/03 09:44:47;;;;;;;15.25;3.40;;;;;;;;;;4332488;33;20635;-66
2021/04/03 09:47:13;;;;;;;17.83;3.85;;;;;;;;;;4332232;33;20164;-66
2021/04/03 09:49:45;;;;;;;18.83;3.72;;;;;;;;;;4333893;33;20461;-64
2021/04/03 09:52:11;;;;;;;15.50;3.42;;;;;;;;;;4332424;33;20199;-66
2021/04/03 09:54:37;;;;;;;16.08;3.25;;;;;;;;;;4332325;33;20163;-66
2021/04/03 09:57:02;;;;;;;17.77;3.42;;;;;;;;;;4331162;33;20152;-67
2021/04/03 09:59:28;;;;;;;19.62;3.45;;;;;;;;;;4332942;33;20219;-62
2021/04/03 10:01:54;;;;;;;19.12;3.70;;;;;;;;;;4331223;33;20595;-60
2021/04/03 10:04:19;;;;;;;19.30;3.60;;;;;;;;;;4328432;33;20226;-64
2021/04/03 10:06:45;;;;;;;16.83;3.78;;;;;;;;;;4331287;33;20502;-63
2021/04/03 10:09:10;;;;;;;15.82;3.55;;;;;;;;;;4330894;33;20287;-62
2021/04/03 10:11:36;;;;;;;18.87;3.53;;;;;;;;;;4326329;33;20543;-62
2021/04/03 10:14:01;;;;;;;15.50;2.87;;;;;;;;;;4328038;33;20253;-62
2021/04/03 10:16:27;;;;;;;18.30;3.75;;;;;;;;;;4331988;33;20167;-65
2021/04/03 10:18:52;;;;;;;18.02;4.30;;;;;;;;;;4332800;33;20458;-62
2021/04/03 10:21:17;;;;;;;15.13;3.10;;;;;;;;;;4332326;33;20194;-63
2021/04/03 10:23:42;;;;;;;17.52;3.83;;;;;;;;;;4330585;33;20160;-63
2021/04/03 10:26:08;;;;;;;16.62;3.40;;;;;;;;;;4330670;33;20140;-64
2021/04/03 10:28:33;;;;;;;18.40;3.42;;;;;;;;;;4329947;33;20256;-64
2021/04/03 10:30:58;;;;;;;20.67;3.75;;;;;;;;;;4330286;33;20155;-63
2021/04/03 10:33:23;;;;;;;17.25;3.22;;;;;;;;;;4331730;33;20230;-64
2021/04/03 10:35:49;;;;;;;17.87;3.20;;;;;;;;;;4330716;33;20494;-63
2021/04/03 10:38:14;;;;;;;18.70;4.10;;;;;;;;;;4332373;33;20148;-63
2021/04/03 10:40:39;;;;;;;17.55;3.80;;;;;;;;;;4328385;33;20387;-63
2021/04/03 10:43:04;;;;;;;14.45;3.42;;;;;;;;;;4331677;33;20236;-65
2021/04/03 10:45:29;;;;;;;15.68;3.42;;;;;;;;;;4331600;33;20151;-64
2021/04/03 10:47:55;;;;;;;18.80;3.37;;;;;;;;;;4332740;33;20159;-61
2021/04/03 10:50:20;;;;;;;20.73;3.37;;;;;;;;;;4329884;33;20241;-64
2021/04/03 10:52:45;;;;;;;9.38;3.10;;;;;;;;;;4330035;33;20728;-63
2021/04/03 10:55:11;;;;;;;13.68;3.10;;;;;;;;;;4330555;33;20182;-64
2021/04/03 10:57:36;;;;;;;16.85;3.20;;;;;;;;;;4328757;33;20445;-63
2021/04/03 11:00:02;;;;;;;13.27;3.37;;;;;;;;;;4329187;33;20190;-65
2021/04/03 11:02:27;;;;;;;18.20;3.37;;;;;;;;;;4330877;33;20299;-63
2021/04/03 11:04:53;;;;;;;16.65;3.70;;;;;;;;;;4329164;33;20171;-61
2021/04/03 11:07:18;;;;;;;14.87;3.33;;;;;;;;;;4330284;33;20153;-62
2021/04/03 11:09:43;;;;;;;13.75;3.35;;;;;;;;;;4330816;33;20182;-63
2021/04/03 11:12:09;;;;;;;17.27;3.67;;;;;;;;;;4331356;33;20577;-63
2021/04/03 11:14:34;;;;;;;12.98;3.37;;;;;;;;;;4331212;33;20223;-63
2021/04/03 11:16:59;;;;;;;26.17;4.18;;;;;;;;;;4331812;33;20218;-65
2021/04/03 11:19:24;;;;;;;15.85;3.65;;;;;;;;;;4330571;33;20656;-63
2021/04/03 11:21:51;;;;;;;16.27;3.13;;;;;;;;;;4330212;33;20194;-65
2021/04/03 11:24:16;;;;;;;18.83;4.22;;;;;;;;;;4328975;33;20253;-64
2021/04/03 11:26:42;;;;;;;22.87;3.62;;;;;;;;;;4332143;33;20418;-65
2021/04/03 11:29:07;;;;;;;17.35;3.70;;;;;;;;;;4330272;33;20253;-63
2021/04/03 11:31:32;;;;;;;18.87;4.12;;;;;;;;;;4331073;33;20159;-63
2021/04/03 11:33:57;;;;;;;16.08;3.55;;;;;;;;;;4331283;33;20211;-62
2021/04/03 11:36:23;;;;;;;16.52;3.60;;;;;;;;;;4328124;33;20155;-60
2021/04/03 11:38:48;;;;;;;15.75;3.60;;;;;;;;;;4329677;33;20553;-63
2021/04/03 11:41:13;;;;;;;18.35;3.62;;;;;;;;;;4329454;33;20186;-64
2021/04/03 11:43:38;;;;;;;15.52;4.15;;;;;;;;;;4331191;33;20147;-64
2021/04/03 11:46:03;;;;;;;19.80;3.70;;;;;;;;;;4331626;33;20713;-64
2021/04/03 11:48:28;;;;;;;14.45;3.45;;;;;;;;;;4329857;33;20155;-64
2021/04/03 11:50:54;;;;;;;12.32;3.08;;;;;;;;;;4330116;33;20605;-64
2021/04/03 11:53:19;;;;;;;16.85;4.10;;;;;;;;;;4327834;33;20324;-63
2021/04/03 11:55:44;;;;;;;11.65;2.87;;;;;;;;;;4330820;33;20140;-61
2021/04/03 11:58:09;;;;;;;12.57;3.23;;;;;;;;;;4328350;33;20262;-61
2021/04/03 12:00:35;;;;;;;15.60;3.67;;;;;;;;;;4329421;33;20233;-62
2021/04/03 12:03:00;;;;;;;10.65;3.33;;;;;;;;;;4329682;33;20259;-62
2021/04/03 12:05:25;;;;;;;11.52;3.05;;;;;;;;;;4329940;33;20135;-65
2021/04/03 12:07:50;;;;;;;13.35;3.45;;;;;;;;;;4330167;33;20654;-64
2021/04/03 12:10:16;;;;;;;14.50;3.75;;;;;;;;;;4330581;33;20190;-63
2021/04/03 12:12:42;;;;;;;16.73;3.60;;;;;;;;;;4317713;33;20171;-65
2021/04/03 12:15:08;;;;;;;14.87;3.17;;;;;;;;;;4329491;33;20168;-62
2021/04/03 12:17:33;;;;;;;15.10;3.60;;;;;;;;;;4328990;33;20140;-64
2021/04/03 12:19:58;;;;;;;14.80;3.37;;;;;;;;;;4330525;33;20527;-63
2021/04/03 12:22:24;;;;;;;10.75;2.97;;;;;;;;;;4329617;33;20160;-62
2021/04/03 12:24:49;;;;;;;7.53;2.70;;;;;;;;;;4328789;33;20207;-62
2021/04/03 12:27:14;;;;;;;11.52;2.60;;;;;;;;;;4328399;33;20136;-63
2021/04/03 12:29:39;;;;;;;9.25;3.03;;;;;;;;;;4329217;33;20166;-63
2021/04/03 12:32:05;;;;;;;8.37;2.67;;;;;;;;;;4329764;33;20143;-66
2021/04/03 12:34:30;;;;;;;15.32;3.50;;;;;;;;;;4328628;33;20284;-62
2021/04/03 12:36:55;;;;;;;16.77;3.95;;;;;;;;;;4329785;33;20474;-64
2021/04/03 12:39:21;;;;;;;11.82;3.30;;;;;;;;;;4329350;33;20155;-63
2021/04/03 12:41:46;;;;;;;14.55;3.17;;;;;;;;;;4328711;33;20570;-62
2021/04/03 12:44:11;;;;;;;12.05;3.78;;;;;;;;;;4327408;33;20659;-64
2021/04/03 12:46:36;;;;;;;17.35;4.10;;;;;;;;;;4328969;33;20252;-64
2021/04/03 12:49:01;;;;;;;9.50;2.80;;;;;;;;;;4329420;33;20182;-64
2021/04/03 12:51:27;;;;;;;11.75;3.00;;;;;;;;;;4329166;33;20619;-65
2021/04/03 12:53:52;;;;;;;14.52;3.47;;;;;;;;;;4329160;33;20238;-64
2021/04/03 12:56:17;;;;;;;12.15;2.92;;;;;;;;;;4330380;33;20136;-62
2021/04/03 12:58:42;;;;;;;11.40;2.83;;;;;;;;;;4330173;33;20170;-65
2021/04/03 13:01:08;;;;;;;12.35;3.20;;;;;;;;;;4329216;33;20534;-63
2021/04/03 13:03:33;;;;;;;12.05;2.90;;;;;;;;;;4328779;33;20194;-65
2021/04/03 13:05:58;;;;;;;11.00;3.12;;;;;;;;;;4328745;33;20190;-65
2021/04/03 13:08:24;;;;;;;13.80;3.37;;;;;;;;;;4327788;33;20194;-65
2021/04/03 13:10:49;;;;;;;14.05;3.17;;;;;;;;;;4330217;33;20234;-64
2021/04/03 13:13:14;;;;;;;13.52;3.45;;;;;;;;;;4330150;33;20194;-63
2021/04/03 13:15:39;;;;;;;14.85;4.00;;;;;;;;;;4328459;33;20632;-64
2021/04/03 13:18:04;;;;;;;14.75;3.55;;;;;;;;;;4328680;33;20163;-64
2021/04/03 13:20:30;;;;;;;13.70;3.83;;;;;;;;;;4341336;33;20878;-63
2021/04/03 13:22:55;;;;;;;13.35;4.07;;;;;;;;;;4327731;33;20622;-66
2021/04/03 13:25:22;;;;;;;16.98;3.42;;;;;;;;;;4329341;33;20162;-63
2021/04/03 13:27:47;;;;;;;15.45;3.75;;;;;;;;;;4329236;33;20182;-65
2021/04/03 13:30:13;;;;;;;15.70;3.80;;;;;;;;;;4329626;33;20144;-62
2021/04/03 13:32:38;;;;;;;13.57;3.95;;;;;;;;;;4327648;33;20768;-63
2021/04/03 13:35:04;;;;;;;9.40;3.40;;;;;;;;;;4330582;33;20174;-64
2021/04/03 13:37:29;;;;;;;15.57;3.50;;;;;;;;;;4328829;33;20315;-63
2021/04/03 13:39:55;;;;;;;15.05;3.45;;;;;;;;;;4331885;33;20175;-65
2021/04/03 13:42:20;;;;;;;14.50;3.78;;;;;;;;;;4332920;33;20242;-62
2021/04/03 13:44:46;;;;;;;17.20;3.60;;;;;;;;;;4332474;33;20136;-64
2021/04/03 13:47:11;;;;;;;16.52;3.60;;;;;;;;;;4331007;33;20205;-65
2021/04/03 13:49:36;;;;;;;13.35;3.00;;;;;;;;;;4331084;33;20244;-61
2021/04/03 13:52:01;;;;;;;16.80;3.60;;;;;;;;;;4331434;33;20136;-65
2021/04/03 13:54:26;;;;;;;17.98;3.95;;;;;;;;;;4330702;33;20253;-64
2021/04/03 13:56:52;;;;;;;19.73;3.80;;;;;;;;;;4331670;33;20174;-66
2021/04/03 13:59:17;;;;;;;15.25;3.70;;;;;;;;;;4331751;33;20211;-63
2021/04/03 14:01:42;;;;;;;14.38;3.72;;;;;;;;;;4332189;33;20140;-64
2021/04/03 14:04:07;;;;;;;15.77;3.45;;;;;;;;;;4331498;33;20299;-62
2021/04/03 14:06:32;;;;;;;12.45;2.90;;;;;;;;;;4330794;33;20211;-64
2021/04/03 14:08:57;;;;;;;17.23;3.70;;;;;;;;;;4332458;33;20211;-62
2021/04/03 14:11:23;;;;;;;15.57;3.33;;;;;;;;;;4331307;33;20267;-65
2021/04/03 14:13:48;;;;;;;15.55;3.53;;;;;;;;;;4331246;33;20152;-64
2021/04/03 14:16:13;;;;;;;15.77;3.70;;;;;;;;;;4331132;33;20159;-64
2021/04/03 14:18:38;;;;;;;18.65;3.50;;;;;;;;;;4331199;33;20471;-62
2021/04/03 14:21:04;;;;;;;19.33;4.43;;;;;;;;;;4328977;33;20219;-67
2021/04/03 14:23:29;;;;;;;11.25;3.42;;;;;;;;;;4332163;33;20245;-65
2021/04/03 14:25:54;;;;;;;16.05;3.50;;;;;;;;;;4332609;33;20479;-64